createdAt,value
2022-12-09T00:01:48.578Z,29.42
2022-12-09T00:06:51.037Z,28.45
2022-12-09T00:11:53.795Z,29.23
2022-12-09T00:16:56.567Z,28.55
2022-12-09T00:21:58.992Z,27.83
2022-12-09T00:27:01.406Z,25.95
2022-12-09T00:32:04.179Z,27.98
2022-12-09T00:37:06.620Z,27.60
2022-12-09T00:42:08.984Z,28.17
2022-12-09T00:47:11.628Z,26.92
2022-12-09T00:52:14.049Z,28.17
2022-12-09T00:57:16.271Z,27.35
2022-12-09T01:02:18.883Z,27.85
2022-12-09T01:07:21.268Z,27.85
2022-12-09T01:12:24.538Z,28.50
2022-12-09T01:17:26.995Z,28.83
2022-12-09T01:22:29.519Z,26.42
2022-12-09T01:27:33.132Z,26.45
2022-12-09T01:32:35.713Z,23.98
2022-12-09T01:37:38.568Z,24.42
2022-12-09T01:42:40.910Z,24.02
2022-12-09T01:47:43.725Z,23.02
2022-12-09T01:52:48.146Z,22.13
2022-12-09T01:57:51.096Z,23.48
2022-12-09T02:02:54.766Z,23.48
2022-12-09T02:07:57.861Z,22.30
2022-12-09T02:13:08.442Z,21.98
2022-12-09T02:18:21.836Z,21.92
2022-12-09T02:23:33.996Z,22.35
2022-12-09T02:28:56.582Z,23.42
2022-12-09T02:34:20.359Z,22.70
2022-12-09T02:39:42.423Z,23.70
2022-12-09T02:44:48.340Z,24.70
2022-12-09T02:49:55.388Z,24.98
2022-12-09T02:55:00.898Z,25.13
2022-12-09T03:00:07.002Z,25.10
2022-12-09T03:05:34.219Z,25.60
2022-12-09T03:10:43.037Z,27.13
2022-12-09T03:15:53.667Z,26.98
2022-12-09T03:20:56.185Z,28.83
2022-12-09T03:26:00.216Z,26.83
2022-12-09T03:31:07.431Z,28.77
2022-12-09T03:36:13.752Z,27.02
2022-12-09T03:41:34.257Z,27.77
2022-12-09T03:46:36.977Z,25.70
2022-12-09T03:51:42.622Z,28.10
2022-12-09T03:56:50.975Z,29.30
2022-12-09T04:01:55.569Z,27.02
2022-12-09T04:06:58.726Z,22.98
2022-12-09T04:12:01.032Z,21.45
2022-12-09T04:17:04.135Z,23.35
2022-12-09T04:22:06.574Z,22.23
2022-12-09T04:27:11.884Z,21.55
2022-12-09T04:32:14.391Z,23.35
2022-12-09T04:37:16.777Z,20.73
2022-12-09T04:42:19.056Z,21.48
2022-12-09T04:47:21.263Z,22.27
2022-12-09T04:52:24.030Z,21.77
2022-12-09T04:57:26.593Z,19.98
2022-12-09T05:02:30.102Z,21.42
2022-12-09T05:07:32.912Z,20.67
2022-12-09T05:12:35.522Z,21.17
2022-12-09T05:17:38.449Z,20.80
2022-12-09T05:22:41.101Z,20.88
2022-12-09T05:27:43.402Z,27.45
2022-12-09T05:32:45.711Z,19.20
2022-12-09T05:37:48.605Z,17.67
2022-12-09T05:42:51.276Z,17.42
2022-12-09T05:47:53.725Z,17.58
2022-12-09T05:52:56.226Z,17.83
2022-12-09T05:57:58.619Z,19.30
2022-12-09T06:03:01.077Z,20.33
2022-12-09T06:08:07.073Z,20.02
2022-12-09T06:13:10.069Z,21.90
2022-12-09T06:18:12.359Z,22.00
2022-12-09T06:23:15.459Z,24.05
2022-12-09T06:28:19.675Z,23.65
2022-12-09T06:33:45.965Z,23.73
2022-12-09T06:38:44.459Z,22.15
2022-12-09T06:43:47.017Z,20.40
2022-12-09T06:48:49.856Z,20.52
2022-12-09T06:53:53.316Z,20.15
2022-12-09T06:58:56.181Z,19.70
2022-12-09T07:03:58.709Z,19.15
2022-12-09T07:09:06.344Z,20.15
2022-12-09T07:14:10.016Z,20.75
2022-12-09T07:19:18.551Z,22.02
2022-12-09T07:24:21.958Z,22.42
2022-12-09T07:29:24.690Z,22.00
2022-12-09T07:34:27.414Z,21.10
2022-12-09T07:39:30.396Z,20.08
2022-12-09T07:44:33.082Z,21.08
2022-12-09T07:49:35.698Z,25.40
2022-12-09T07:54:38.368Z,25.00
2022-12-09T07:59:40.887Z,24.40
2022-12-09T08:04:43.546Z,24.15
2022-12-09T08:09:46.506Z,27.80
2022-12-09T08:14:49.359Z,23.52
2022-12-09T08:19:52.301Z,20.15
2022-12-09T08:24:55.194Z,20.15
2022-12-09T08:29:57.891Z,18.95
2022-12-09T08:35:00.930Z,19.08
2022-12-09T08:40:03.695Z,18.10
2022-12-09T08:45:07.267Z,19.45
2022-12-09T08:50:10.213Z,18.58
2022-12-09T08:55:12.869Z,18.92
2022-12-09T09:00:16.230Z,16.70
2022-12-09T09:05:19.051Z,18.98
2022-12-09T09:10:22.485Z,15.65
2022-12-09T09:15:25.186Z,16.38
2022-12-09T09:20:27.591Z,15.90
2022-12-09T09:25:30.641Z,15.35
2022-12-09T09:30:33.100Z,15.48
2022-12-09T09:35:36.027Z,16.27
2022-12-09T09:40:42.303Z,16.45
2022-12-09T09:45:45.993Z,18.45
2022-12-09T09:51:06.510Z,17.05
2022-12-09T09:56:31.951Z,17.67
2022-12-09T10:01:37.019Z,18.08
2022-12-09T10:06:52.061Z,19.45
2022-12-09T10:12:09.562Z,20.98
2022-12-09T10:17:36.798Z,19.70
2022-12-09T10:22:48.243Z,18.92
2022-12-09T10:28:10.845Z,19.85
2022-12-09T10:33:15.774Z,19.13
2022-12-09T10:38:20.251Z,18.08
2022-12-09T10:43:36.303Z,27.75
2022-12-09T10:48:41.231Z,25.00
2022-12-09T10:54:17.894Z,25.38
2022-12-09T10:59:24.861Z,26.20
2022-12-09T11:04:30.686Z,24.80
2022-12-09T11:09:36.718Z,21.88
2022-12-09T11:14:48.661Z,19.95
2022-12-09T11:19:54.287Z,21.00
2022-12-09T11:25:15.813Z,22.83
2022-12-09T11:30:23.170Z,20.73
2022-12-09T11:35:30.648Z,23.10
2022-12-09T11:40:33.449Z,24.10
2022-12-09T11:45:38.974Z,24.40
2022-12-09T11:50:48.537Z,23.67
2022-12-09T11:56:18.373Z,24.13
2022-12-09T12:01:45.997Z,23.40
2022-12-09T12:06:52.517Z,20.85
2022-12-09T12:12:14.675Z,21.02
2022-12-09T12:17:37.406Z,21.10
2022-12-09T12:22:58.637Z,23.50
2022-12-09T12:28:21.420Z,20.83
2022-12-09T12:34:16.231Z,20.50
2022-12-09T12:39:33.089Z,20.35
2022-12-09T12:45:15.045Z,19.60
2022-12-09T12:50:43.705Z,19.05
2022-12-09T12:55:56.099Z,20.45
2022-12-09T13:01:19.478Z,18.98
2022-12-09T13:06:31.644Z,19.77
2022-12-09T13:11:47.898Z,22.30
2022-12-09T13:16:51.404Z,20.08
2022-12-09T13:21:53.919Z,18.85
2022-12-09T13:27:05.660Z,18.90
2022-12-09T13:32:27.754Z,18.98
2022-12-09T13:37:32.242Z,19.85
2022-12-09T13:42:54.995Z,31.88
2022-12-09T13:48:18.831Z,29.17
2022-12-09T13:53:21.045Z,19.92
2022-12-09T13:58:44.352Z,21.83
2022-12-09T14:04:26.941Z,23.13
2022-12-09T14:09:43.942Z,21.63
2022-12-09T14:14:50.466Z,19.85
2022-12-09T14:20:15.366Z,18.50
2022-12-09T14:25:34.154Z,19.50
2022-12-09T14:30:53.567Z,19.67
2022-12-09T14:36:04.971Z,21.98
2022-12-09T14:41:23.209Z,27.63
2022-12-09T14:46:34.501Z,31.65
2022-12-09T14:51:40.299Z,26.55
2022-12-09T14:56:51.711Z,22.45
2022-12-09T15:01:56.412Z,24.50
2022-12-09T15:07:20.390Z,23.13
2022-12-09T15:12:32.437Z,23.58
2022-12-09T15:17:58.565Z,21.38
2022-12-09T15:23:05.819Z,21.88
2022-12-09T15:28:26.994Z,24.88
2022-12-09T15:33:31.622Z,23.35
2022-12-09T15:38:41.245Z,22.98
2022-12-09T15:43:44.632Z,21.90
2022-12-09T15:48:51.858Z,20.40
2022-12-09T15:54:06.825Z,21.75
2022-12-09T15:59:33.006Z,22.80
2022-12-09T16:04:42.122Z,22.40
2022-12-09T16:10:04.511Z,20.33
2022-12-09T16:15:09.905Z,21.80
2022-12-09T16:20:21.855Z,21.85
2022-12-09T16:25:27.014Z,21.00
2022-12-09T16:30:32.703Z,22.05
2022-12-09T16:35:42.818Z,22.30
2022-12-09T16:40:45.048Z,22.75
2022-12-09T16:45:48.339Z,21.80
2022-12-09T16:50:58.989Z,24.35
2022-12-09T16:56:03.242Z,25.58
2022-12-09T17:01:06.158Z,26.83
2022-12-09T17:06:14.952Z,29.30
2022-12-09T17:11:18.924Z,26.83
2022-12-09T17:16:24.121Z,27.40
2022-12-09T17:21:26.550Z,26.15
2022-12-09T17:26:28.784Z,26.13
2022-12-09T17:31:31.144Z,31.55
2022-12-09T17:36:33.518Z,28.00
2022-12-09T17:41:35.800Z,26.42
2022-12-09T17:46:38.042Z,25.45
2022-12-09T17:51:40.860Z,31.60
2022-12-09T17:56:43.173Z,26.67
2022-12-09T18:01:47.097Z,32.60
2022-12-09T18:06:49.602Z,27.30
2022-12-09T18:11:52.216Z,27.75
2022-12-09T18:16:55.436Z,26.42
2022-12-09T18:22:00.249Z,26.00
2022-12-09T18:27:03.014Z,25.05
2022-12-09T18:32:06.173Z,25.67
2022-12-09T18:37:08.579Z,25.70
2022-12-09T18:42:10.895Z,23.67
2022-12-09T18:47:13.187Z,25.15
2022-12-09T18:52:15.455Z,24.83
2022-12-09T18:57:17.814Z,31.08
2022-12-09T19:02:20.436Z,27.88
2022-12-09T19:07:25.497Z,26.48
2022-12-09T19:12:46.425Z,26.20
2022-12-09T19:17:50.068Z,26.25
2022-12-09T19:22:53.576Z,25.67
2022-12-09T19:27:55.806Z,24.17
2022-12-09T19:32:58.069Z,23.35
2022-12-09T19:38:01.566Z,24.73
2022-12-09T19:43:04.301Z,33.08
2022-12-09T19:48:07.151Z,23.88
2022-12-09T19:53:09.562Z,29.67
2022-12-09T19:58:11.878Z,40.65
2022-12-09T20:03:14.299Z,33.90
2022-12-09T20:08:16.686Z,32.40
2022-12-09T20:13:19.014Z,30.13
2022-12-09T20:18:23.629Z,30.92
2022-12-09T20:23:25.891Z,29.30
2022-12-09T20:28:30.737Z,25.70
2022-12-09T20:33:33.742Z,28.33
2022-12-09T20:38:36.225Z,25.13
2022-12-09T20:43:43.047Z,24.88
2022-12-09T20:48:45.911Z,27.08
2022-12-09T20:53:49.118Z,24.13
2022-12-09T20:58:53.964Z,28.48
2022-12-09T21:03:57.372Z,25.85
2022-12-09T21:09:02.597Z,27.75
2022-12-09T21:14:07.986Z,38.80
2022-12-09T21:19:14.172Z,27.42
2022-12-09T21:24:18.381Z,23.60
2022-12-09T21:29:22.916Z,21.60
2022-12-09T21:34:27.288Z,21.23
2022-12-09T21:39:29.669Z,20.75
2022-12-09T21:44:31.928Z,18.77
2022-12-09T21:49:34.428Z,19.65
2022-12-09T21:54:38.108Z,18.58
2022-12-09T21:59:40.302Z,19.63
2022-12-09T22:05:13.220Z,19.45
2022-12-09T22:10:15.521Z,18.63
2022-12-09T22:15:17.872Z,19.85
2022-12-09T22:21:00.858Z,19.77
2022-12-09T22:25:42.416Z,20.35
2022-12-09T22:30:44.762Z,20.15
2022-12-09T22:35:47.055Z,20.42
2022-12-09T22:40:49.314Z,21.35
2022-12-09T22:45:51.571Z,21.42
2022-12-09T22:50:53.876Z,22.25
2022-12-09T22:55:56.118Z,19.75
2022-12-09T23:00:58.449Z,21.33
2022-12-09T23:06:02.071Z,21.13
2022-12-09T23:11:08.068Z,20.73
2022-12-09T23:16:14.174Z,19.40
2022-12-09T23:21:20.183Z,18.95
2022-12-09T23:26:25.766Z,19.17
2022-12-09T23:31:31.471Z,20.25
2022-12-09T23:36:36.564Z,20.60
2022-12-09T23:41:40.733Z,20.02
2022-12-09T23:46:43.685Z,20.58
2022-12-09T23:51:46.077Z,20.35
2022-12-09T23:56:49.900Z,21.38
